Time;durP1;ratioP1;P1;durP2;ratioP2;P2;SDS_P1;SDS_P2;PMS_P1;PMS_P2;Temp;Humidity;BMP_temperature;BMP_pressure;BME280_temperature;BME280_humidity;BME280_pressure;Samples;Min_cycle;Max_cycle;Signal;HPM_P1;HPM_P2
2023/07/07 00:00:33;;;;;;;5.22;2.50;;;;;;;;;;4972559;28;20430;-84
2023/07/07 00:02:58;;;;;;;2.53;2.15;;;;;;;;;;4971441;28;20062;-84
2023/07/07 00:05:24;;;;;;;3.65;2.60;;;;;;;;;;4970149;28;20034;-84
2023/07/07 00:07:50;;;;;;;5.20;2.40;;;;;;;;;;4981219;28;20511;-84
2023/07/07 00:10:16;;;;;;;5.25;2.42;;;;;;;;;;4982017;28;20034;-84
2023/07/07 00:12:42;;;;;;;5.15;2.17;;;;;;;;;;4981978;28;20031;-84
2023/07/07 00:15:07;;;;;;;6.38;2.70;;;;;;;;;;4986245;28;20063;-84
2023/07/07 00:17:33;;;;;;;7.22;2.40;;;;;;;;;;4981131;28;20100;-84
2023/07/07 00:20:07;;;;;;;7.90;2.20;;;;;;;;;;4970774;28;20021;-84
2023/07/07 00:22:34;;;;;;;3.45;2.33;;;;;;;;;;4975810;28;20030;-84
2023/07/07 00:25:04;;;;;;;4.28;2.33;;;;;;;;;;4975498;28;20026;-84
2023/07/07 00:27:30;;;;;;;3.60;2.22;;;;;;;;;;4975143;28;20026;-83
2023/07/07 00:29:56;;;;;;;5.75;2.40;;;;;;;;;;4974323;28;20019;-84
2023/07/07 00:32:22;;;;;;;7.05;2.55;;;;;;;;;;4977317;28;20105;-84
2023/07/07 00:34:47;;;;;;;4.85;2.30;;;;;;;;;;4971372;28;20386;-83
2023/07/07 00:37:13;;;;;;;5.95;2.83;;;;;;;;;;4973970;28;20546;-84
2023/07/07 00:39:38;;;;;;;3.55;2.55;;;;;;;;;;4984232;28;20065;-84
2023/07/07 00:42:04;;;;;;;7.93;2.90;;;;;;;;;;4972216;28;20019;-84
2023/07/07 00:45:08;;;;;;;5.00;2.70;;;;;;;;;;4975784;28;20475;-84
2023/07/07 00:47:38;;;;;;;7.53;2.60;;;;;;;;;;4974704;28;20097;-84
2023/07/07 00:50:07;;;;;;;5.35;2.17;;;;;;;;;;4977830;28;20192;-84
2023/07/07 00:52:34;;;;;;;3.50;2.28;;;;;;;;;;4974037;28;20018;-87
2023/07/07 00:55:00;;;;;;;4.30;2.53;;;;;;;;;;4976239;28;20065;-84
2023/07/07 00:57:25;;;;;;;4.38;2.45;;;;;;;;;;4985152;28;20062;-84
2023/07/07 00:59:51;;;;;;;3.10;2.00;;;;;;;;;;4977058;28;20026;-86
2023/07/07 01:02:24;;;;;;;4.35;2.47;;;;;;;;;;4982729;28;20482;-83
2023/07/07 01:04:55;;;;;;;5.03;2.72;;;;;;;;;;4986477;28;20074;-84
2023/07/07 01:07:26;;;;;;;4.50;2.40;;;;;;;;;;4978365;28;20077;-84
2023/07/07 01:09:51;;;;;;;6.60;2.80;;;;;;;;;;4985720;28;20391;-84
2023/07/07 01:12:17;;;;;;;5.50;2.70;;;;;;;;;;4983665;28;20470;-84
2023/07/07 01:14:43;;;;;;;6.90;2.88;;;;;;;;;;4987245;28;20146;-84
2023/07/07 01:17:41;;;;;;;7.50;2.92;;;;;;;;;;4993198;28;20037;-84
2023/07/07 01:20:15;;;;;;;5.55;2.17;;;;;;;;;;4944976;28;20034;-84
2023/07/07 01:23:08;;;;;;;4.95;2.95;;;;;;;;;;4970836;28;20486;-84
2023/07/07 01:25:58;;;;;;;7.95;2.40;;;;;;;;;;4979933;28;20113;-85
2023/07/07 01:28:53;;;;;;;7.88;2.55;;;;;;;;;;4976136;28;20036;-84
2023/07/07 01:31:44;;;;;;;4.75;2.67;;;;;;;;;;4975566;28;20114;-84
2023/07/07 01:34:13;;;;;;;5.70;2.90;;;;;;;;;;4972762;28;20031;-85
2023/07/07 01:36:39;;;;;;;4.28;2.33;;;;;;;;;;4975678;28;20098;-84
2023/07/07 01:39:05;;;;;;;6.60;2.95;;;;;;;;;;4979722;28;20464;-85
2023/07/07 01:41:42;;;;;;;4.13;2.38;;;;;;;;;;4976920;28;20019;-85
2023/07/07 01:44:22;;;;;;;3.97;2.50;;;;;;;;;;4976157;28;20100;-84
2023/07/07 01:47:14;;;;;;;6.30;3.00;;;;;;;;;;4976239;28;20053;-85
2023/07/07 01:49:56;;;;;;;2.75;2.13;;;;;;;;;;4969452;28;20038;-85
2023/07/07 01:52:39;;;;;;;8.15;2.55;;;;;;;;;;4974488;28;20089;-84
2023/07/07 01:55:20;;;;;;;4.68;2.58;;;;;;;;;;4975251;28;20030;-84
2023/07/07 01:57:49;;;;;;;3.80;2.70;;;;;;;;;;4970313;28;20042;-84
2023/07/07 02:00:17;;;;;;;6.53;2.65;;;;;;;;;;4973005;28;20061;-85
2023/07/07 02:02:43;;;;;;;7.93;2.63;;;;;;;;;;4982794;28;20022;-85
2023/07/07 02:05:11;;;;;;;4.63;2.20;;;;;;;;;;4974439;28;20038;-85
2023/07/07 02:07:36;;;;;;;3.33;2.40;;;;;;;;;;4980837;28;20065;-84
2023/07/07 02:10:02;;;;;;;6.75;2.20;;;;;;;;;;4974941;28;20066;-85
2023/07/07 02:12:27;;;;;;;5.50;2.53;;;;;;;;;;4993794;28;20038;-84
2023/07/07 02:14:52;;;;;;;5.95;2.58;;;;;;;;;;4975488;28;20023;-85
2023/07/07 02:17:18;;;;;;;4.93;2.53;;;;;;;;;;4978154;28;20371;-84
2023/07/07 02:19:44;;;;;;;6.15;2.55;;;;;;;;;;4974435;28;20454;-84
2023/07/07 02:22:09;;;;;;;6.25;3.30;;;;;;;;;;4973378;28;20022;-85
2023/07/07 02:24:35;;;;;;;4.80;2.55;;;;;;;;;;4974796;28;20026;-85
2023/07/07 02:27:01;;;;;;;3.67;2.28;;;;;;;;;;4982014;28;20018;-84
2023/07/07 02:29:27;;;;;;;5.80;2.40;;;;;;;;;;4976920;28;20034;-85
2023/07/07 02:31:52;;;;;;;5.18;2.83;;;;;;;;;;4978656;28;20023;-84
2023/07/07 02:34:18;;;;;;;4.25;2.58;;;;;;;;;;4974763;28;20081;-84
2023/07/07 02:36:43;;;;;;;5.82;2.92;;;;;;;;;;4975709;28;20031;-84
2023/07/07 02:39:08;;;;;;;5.05;2.90;;;;;;;;;;4980346;28;20022;-84
2023/07/07 02:41:34;;;;;;;4.70;2.47;;;;;;;;;;4975704;28;20521;-85
2023/07/07 02:43:59;;;;;;;5.70;2.90;;;;;;;;;;4972779;28;20029;-84
2023/07/07 02:46:24;;;;;;;3.92;2.35;;;;;;;;;;4971547;28;20057;-85
2023/07/07 02:48:50;;;;;;;5.00;2.60;;;;;;;;;;4973071;28;20020;-83
2023/07/07 02:51:15;;;;;;;4.78;2.90;;;;;;;;;;4974334;28;20039;-84
2023/07/07 02:53:41;;;;;;;7.43;3.03;;;;;;;;;;4973054;28;20018;-84
2023/07/07 02:56:06;;;;;;;4.70;2.97;;;;;;;;;;4985570;28;20026;-84
2023/07/07 02:58:32;;;;;;;4.75;2.40;;;;;;;;;;4989584;28;20026;-84
2023/07/07 03:01:11;;;;;;;5.38;2.70;;;;;;;;;;4992065;28;20094;-84
2023/07/07 03:03:42;;;;;;;5.40;2.88;;;;;;;;;;4992308;28;20113;-84
2023/07/07 03:06:15;;;;;;;4.73;2.57;;;;;;;;;;4975182;28;20486;-84
2023/07/07 03:08:41;;;;;;;6.15;2.63;;;;;;;;;;4976589;28;20023;-85
2023/07/07 03:11:09;;;;;;;7.80;2.80;;;;;;;;;;4992134;28;20030;-84
2023/07/07 03:13:36;;;;;;;4.00;2.53;;;;;;;;;;4989013;28;20026;-83
2023/07/07 03:16:22;;;;;;;3.47;2.55;;;;;;;;;;4977311;28;20034;-84
2023/07/07 03:18:49;;;;;;;7.18;2.38;;;;;;;;;;4974903;28;20069;-84
2023/07/07 03:21:19;;;;;;;4.97;2.60;;;;;;;;;;4989637;28;20133;-84
2023/07/07 03:23:45;;;;;;;4.57;2.70;;;;;;;;;;4981952;28;20027;-83
2023/07/07 03:26:16;;;;;;;4.03;2.40;;;;;;;;;;4982101;28;20434;-84
2023/07/07 03:28:42;;;;;;;6.72;3.20;;;;;;;;;;4982961;28;20023;-84
2023/07/07 03:31:12;;;;;;;3.63;2.40;;;;;;;;;;4983646;28;20188;-83
2023/07/07 03:33:42;;;;;;;3.97;2.53;;;;;;;;;;4988636;28;20394;-84
2023/07/07 03:36:12;;;;;;;7.63;2.20;;;;;;;;;;4980534;28;20409;-84
2023/07/07 03:38:38;;;;;;;7.80;3.00;;;;;;;;;;4982527;28;20105;-84
2023/07/07 03:41:04;;;;;;;5.65;2.88;;;;;;;;;;4989582;28;20019;-84
2023/07/07 03:43:33;;;;;;;5.10;3.08;;;;;;;;;;4983151;28;20026;-84
2023/07/07 03:45:59;;;;;;;4.78;2.67;;;;;;;;;;5014304;23;20053;-77
2023/07/07 03:48:25;;;;;;;8.35;3.15;;;;;;;;;;5012303;28;20034;-78
2023/07/07 03:51:00;;;;;;;5.10;3.17;;;;;;;;;;5019256;23;20377;-83
2023/07/07 03:53:27;;;;;;;6.05;3.13;;;;;;;;;;4977962;28;20109;-83
2023/07/07 03:55:53;;;;;;;7.40;2.67;;;;;;;;;;4971107;28;20496;-85
2023/07/07 03:58:18;;;;;;;5.07;2.80;;;;;;;;;;4978318;28;20030;-85
2023/07/07 04:00:46;;;;;;;5.22;2.90;;;;;;;;;;4975728;28;20029;-85
2023/07/07 04:03:12;;;;;;;6.05;3.22;;;;;;;;;;4982122;28;20041;-85
2023/07/07 04:05:45;;;;;;;3.72;2.67;;;;;;;;;;4971939;28;20046;-85
2023/07/07 04:08:10;;;;;;;4.13;2.47;;;;;;;;;;4974397;28;20109;-85
2023/07/07 04:10:39;;;;;;;5.28;2.85;;;;;;;;;;4976342;28;20084;-84
2023/07/07 04:13:06;;;;;;;6.25;2.90;;;;;;;;;;4992469;28;20023;-85
2023/07/07 04:15:31;;;;;;;6.93;2.53;;;;;;;;;;4982841;28;20025;-84
2023/07/07 04:17:57;;;;;;;6.47;2.50;;;;;;;;;;4986302;28;20014;-86
2023/07/07 04:20:22;;;;;;;4.78;2.90;;;;;;;;;;4983507;28;20414;-83
2023/07/07 04:22:48;;;;;;;5.60;2.78;;;;;;;;;;4978328;28;20500;-84
2023/07/07 04:25:15;;;;;;;7.47;3.15;;;;;;;;;;4976458;28;20077;-83
2023/07/07 04:27:42;;;;;;;4.18;2.85;;;;;;;;;;4989148;28;20018;-84
2023/07/07 04:30:09;;;;;;;3.42;2.42;;;;;;;;;;4973418;28;20074;-84
2023/07/07 04:32:35;;;;;;;5.82;2.78;;;;;;;;;;4958485;28;20023;-84
2023/07/07 04:35:01;;;;;;;6.85;3.00;;;;;;;;;;4982870;28;20022;-84
2023/07/07 04:37:27;;;;;;;6.55;2.53;;;;;;;;;;4975942;28;20054;-84
2023/07/07 04:39:53;;;;;;;4.18;2.67;;;;;;;;;;4984932;28;20019;-84
2023/07/07 04:42:18;;;;;;;4.95;2.67;;;;;;;;;;4975072;28;20544;-84
2023/07/07 04:44:44;;;;;;;5.50;3.00;;;;;;;;;;4975497;28;20025;-84
2023/07/07 04:47:10;;;;;;;5.13;2.90;;;;;;;;;;4975309;28;20030;-83
2023/07/07 04:49:35;;;;;;;6.72;2.90;;;;;;;;;;4964353;28;20430;-85
2023/07/07 04:52:00;;;;;;;7.68;3.15;;;;;;;;;;4984512;28;20050;-85
2023/07/07 04:54:26;;;;;;;5.68;3.15;;;;;;;;;;4975234;28;20030;-85
2023/07/07 04:56:53;;;;;;;5.32;3.28;;;;;;;;;;4994759;28;20556;-85
2023/07/07 04:59:19;;;;;;;13.25;3.60;;;;;;;;;;4977436;28;20022;-85
2023/07/07 05:01:45;;;;;;;8.63;3.15;;;;;;;;;;4977540;28;20056;-85
2023/07/07 05:04:10;;;;;;;6.80;2.90;;;;;;;;;;4975510;28;20122;-85
2023/07/07 05:06:38;;;;;;;4.93;2.65;;;;;;;;;;4981598;28;20424;-84
2023/07/07 05:09:04;;;;;;;9.27;3.45;;;;;;;;;;4990654;28;20487;-85
2023/07/07 05:11:31;;;;;;;7.05;3.33;;;;;;;;;;4975690;28;20053;-85
2023/07/07 05:13:57;;;;;;;7.55;3.25;;;;;;;;;;4987069;28;20077;-83
2023/07/07 05:16:25;;;;;;;6.82;3.45;;;;;;;;;;4998757;28;20027;-85
2023/07/07 05:18:51;;;;;;;8.70;3.75;;;;;;;;;;4975933;28;20027;-85
2023/07/07 05:21:18;;;;;;;7.72;3.65;;;;;;;;;;4974440;28;20042;-84
2023/07/07 05:23:44;;;;;;;5.18;3.25;;;;;;;;;;4975750;28;20027;-84
2023/07/07 05:26:10;;;;;;;9.07;3.53;;;;;;;;;;4976133;28;20023;-85
2023/07/07 05:28:36;;;;;;;6.72;3.45;;;;;;;;;;4977382;28;20649;-85
2023/07/07 05:31:01;;;;;;;4.82;3.05;;;;;;;;;;4977964;28;20465;-85
2023/07/07 05:33:30;;;;;;;5.25;3.10;;;;;;;;;;4975899;28;20035;-85
2023/07/07 05:35:59;;;;;;;8.75;3.70;;;;;;;;;;4978037;28;20433;-85
2023/07/07 05:38:26;;;;;;;7.07;3.40;;;;;;;;;;4980154;28;20038;-85
2023/07/07 05:40:52;;;;;;;10.20;4.20;;;;;;;;;;4979365;28;20442;-84
2023/07/07 05:43:20;;;;;;;7.80;3.67;;;;;;;;;;4987374;28;20110;-84
2023/07/07 05:45:45;;;;;;;6.53;3.75;;;;;;;;;;4984308;28;20027;-84
2023/07/07 05:48:12;;;;;;;5.20;3.20;;;;;;;;;;4979539;28;20045;-85
2023/07/07 05:50:43;;;;;;;7.45;3.60;;;;;;;;;;4980432;28;20027;-84
2023/07/07 05:53:12;;;;;;;6.32;3.65;;;;;;;;;;4980179;28;20034;-84
2023/07/07 05:55:38;;;;;;;11.10;4.00;;;;;;;;;;4980648;28;20035;-85
2023/07/07 05:58:05;;;;;;;7.50;3.90;;;;;;;;;;4979589;28;20503;-85
2023/07/07 06:00:33;;;;;;;6.07;3.47;;;;;;;;;;4978951;28;20030;-84
2023/07/07 06:02:59;;;;;;;8.15;4.03;;;;;;;;;;4980485;28;20018;-84
2023/07/07 06:05:25;;;;;;;9.90;3.95;;;;;;;;;;4980417;28;20514;-84
2023/07/07 06:07:51;;;;;;;8.55;4.00;;;;;;;;;;4980108;28;20121;-84
2023/07/07 06:10:17;;;;;;;5.68;3.50;;;;;;;;;;4995194;28;20027;-83
2023/07/07 06:12:43;;;;;;;6.05;3.70;;;;;;;;;;4977310;28;20042;-85
2023/07/07 06:15:09;;;;;;;6.22;3.20;;;;;;;;;;4983683;28;20033;-85
2023/07/07 06:17:34;;;;;;;8.25;3.60;;;;;;;;;;4977412;28;20019;-85
2023/07/07 06:20:00;;;;;;;6.25;3.72;;;;;;;;;;4992763;28;20050;-85
2023/07/07 06:22:26;;;;;;;7.57;3.35;;;;;;;;;;4978031;28;20110;-85
2023/07/07 06:24:52;;;;;;;6.32;3.22;;;;;;;;;;4975193;28;20381;-85
2023/07/07 06:27:18;;;;;;;7.05;3.08;;;;;;;;;;4985127;28;20054;-81
2023/07/07 06:29:43;;;;;;;8.57;3.15;;;;;;;;;;4980978;28;20502;-84
2023/07/07 06:32:09;;;;;;;7.90;2.97;;;;;;;;;;4980311;28;20033;-83
2023/07/07 06:34:35;;;;;;;4.72;2.88;;;;;;;;;;4978775;28;20031;-82
2023/07/07 06:37:00;;;;;;;7.25;3.35;;;;;;;;;;4981958;28;20027;-86
2023/07/07 06:39:27;;;;;;;10.77;3.13;;;;;;;;;;4987573;28;20031;-84
2023/07/07 06:41:53;;;;;;;10.95;3.67;;;;;;;;;;4978637;28;20054;-86
2023/07/07 06:44:19;;;;;;;6.82;3.38;;;;;;;;;;4981153;28;20019;-84
2023/07/07 06:46:44;;;;;;;6.60;3.20;;;;;;;;;;4982944;28;20050;-84
2023/07/07 06:49:10;;;;;;;4.65;3.13;;;;;;;;;;4978608;28;20030;-85
2023/07/07 06:51:35;;;;;;;4.68;2.95;;;;;;;;;;4976875;28;20027;-85
2023/07/07 06:54:01;;;;;;;7.15;3.60;;;;;;;;;;4985997;28;20081;-84
2023/07/07 06:56:26;;;;;;;7.68;3.25;;;;;;;;;;4978750;28;20054;-84
2023/07/07 06:58:51;;;;;;;9.20;3.45;;;;;;;;;;4979967;28;20049;-85
2023/07/07 07:01:17;;;;;;;7.13;3.05;;;;;;;;;;4978788;28;20053;-85
2023/07/07 07:03:43;;;;;;;8.32;3.33;;;;;;;;;;4981549;28;20550;-85
2023/07/07 07:06:09;;;;;;;6.20;3.28;;;;;;;;;;4982205;28;20508;-85
2023/07/07 07:08:34;;;;;;;4.53;2.88;;;;;;;;;;4985639;28;20026;-86
2023/07/07 07:11:00;;;;;;;8.07;3.00;;;;;;;;;;4985963;28;20041;-86
2023/07/07 07:13:26;;;;;;;6.20;3.15;;;;;;;;;;4974481;28;20030;-84
2023/07/07 07:15:51;;;;;;;7.45;2.92;;;;;;;;;;4989026;28;20031;-84
2023/07/07 07:18:17;;;;;;;5.07;3.20;;;;;;;;;;4990451;28;20071;-84
2023/07/07 07:20:50;;;;;;;4.28;2.72;;;;;;;;;;5002070;28;19999;-85
2023/07/07 07:23:16;;;;;;;6.15;3.00;;;;;;;;;;4979975;28;20041;-84
2023/07/07 07:25:45;;;;;;;4.72;2.88;;;;;;;;;;4989520;28;20512;-85
2023/07/07 07:28:11;;;;;;;8.63;3.10;;;;;;;;;;4976511;28;20042;-84
2023/07/07 07:30:37;;;;;;;7.40;3.42;;;;;;;;;;4987860;28;20029;-85
2023/07/07 07:33:04;;;;;;;5.18;2.78;;;;;;;;;;4983385;28;20015;-85
2023/07/07 07:35:30;;;;;;;4.13;2.83;;;;;;;;;;4985681;28;20120;-84
2023/07/07 07:37:55;;;;;;;6.22;3.38;;;;;;;;;;4997845;28;20022;-85
2023/07/07 07:40:23;;;;;;;6.95;3.08;;;;;;;;;;4981012;28;20150;-86
2023/07/07 07:42:48;;;;;;;4.90;2.72;;;;;;;;;;4981993;28;20023;-85
2023/07/07 07:45:19;;;;;;;7.20;3.28;;;;;;;;;;4986955;28;20041;-85
2023/07/07 07:47:45;;;;;;;4.93;3.03;;;;;;;;;;4990357;28;20114;-85
2023/07/07 07:50:10;;;;;;;5.95;3.53;;;;;;;;;;4978451;28;20103;-84
2023/07/07 07:52:41;;;;;;;8.38;3.20;;;;;;;;;;4978671;28;20081;-85
2023/07/07 07:55:06;;;;;;;4.22;2.63;;;;;;;;;;4983993;28;20023;-85
2023/07/07 07:57:32;;;;;;;5.40;3.72;;;;;;;;;;4985355;28;20053;-85
2023/07/07 07:59:57;;;;;;;5.25;3.17;;;;;;;;;;4991212;28;20027;-85
2023/07/07 08:02:23;;;;;;;5.90;3.08;;;;;;;;;;4974695;28;20034;-85
2023/07/07 08:04:48;;;;;;;5.50;3.28;;;;;;;;;;4976956;28;20392;-84
2023/07/07 08:07:14;;;;;;;3.72;2.78;;;;;;;;;;4981273;28;20030;-86
2023/07/07 08:09:39;;;;;;;6.20;3.25;;;;;;;;;;4986166;28;20118;-85
2023/07/07 08:12:05;;;;;;;4.90;3.00;;;;;;;;;;4981892;28;20054;-85
2023/07/07 08:14:32;;;;;;;6.45;2.88;;;;;;;;;;4990863;28;20049;-85
2023/07/07 08:17:04;;;;;;;8.50;3.05;;;;;;;;;;5007175;28;20041;-85
2023/07/07 08:19:31;;;;;;;6.70;3.28;;;;;;;;;;4994391;28;20038;-84
2023/07/07 08:21:57;;;;;;;6.68;3.20;;;;;;;;;;4991902;28;20051;-85
2023/07/07 08:24:24;;;;;;;6.25;3.40;;;;;;;;;;4986288;28;20039;-86
2023/07/07 08:26:49;;;;;;;5.75;3.45;;;;;;;;;;4989800;28;20430;-86
2023/07/07 08:29:15;;;;;;;6.43;3.05;;;;;;;;;;4973744;28;20027;-86
2023/07/07 08:31:40;;;;;;;7.72;3.00;;;;;;;;;;4972523;28;20019;-85
2023/07/07 08:34:06;;;;;;;7.07;3.20;;;;;;;;;;4985099;28;20025;-86
2023/07/07 08:36:31;;;;;;;8.70;3.13;;;;;;;;;;4994559;28;20022;-86
2023/07/07 08:39:08;;;;;;;5.72;3.10;;;;;;;;;;4979975;28;20025;-85
2023/07/07 08:41:34;;;;;;;7.35;3.45;;;;;;;;;;4981397;28;20026;-85
2023/07/07 08:44:18;;;;;;;5.13;3.00;;;;;;;;;;4983908;28;20086;-85
2023/07/07 08:47:07;;;;;;;9.43;3.10;;;;;;;;;;4979846;28;20029;-86
2023/07/07 08:50:11;;;;;;;7.53;3.72;;;;;;;;;;4980798;28;20042;-85
2023/07/07 08:52:42;;;;;;;5.88;3.20;;;;;;;;;;4983393;28;20030;-86
2023/07/07 08:55:17;;;;;;;5.38;3.13;;;;;;;;;;4990019;28;20030;-85
2023/07/07 08:58:02;;;;;;;10.70;3.60;;;;;;;;;;4983314;28;20061;-85
2023/07/07 09:00:46;;;;;;;7.95;3.55;;;;;;;;;;4992451;28;20019;-86
2023/07/07 09:03:36;;;;;;;4.60;3.28;;;;;;;;;;4978519;28;20485;-85
2023/07/07 09:06:20;;;;;;;6.10;3.45;;;;;;;;;;4989487;28;20026;-85
2023/07/07 09:09:30;;;;;;;4.22;3.17;;;;;;;;;;4975859;28;20047;-85
2023/07/07 09:12:19;;;;;;;5.28;3.50;;;;;;;;;;4951808;29;20106;-85
2023/07/07 09:15:21;;;;;;;8.10;3.30;;;;;;;;;;5001013;28;20025;-88
2023/07/07 09:17:52;;;;;;;6.93;3.47;;;;;;;;;;4972096;28;20042;-85
2023/07/07 09:20:21;;;;;;;4.97;3.55;;;;;;;;;;4979212;28;20068;-85
2023/07/07 09:22:55;;;;;;;5.88;3.20;;;;;;;;;;4978553;28;20034;-85
2023/07/07 09:25:29;;;;;;;6.18;3.80;;;;;;;;;;4979168;28;20546;-85
2023/07/07 09:27:58;;;;;;;5.53;3.33;;;;;;;;;;4979970;28;20014;-85
2023/07/07 09:30:35;;;;;;;5.45;3.63;;;;;;;;;;4975409;28;20027;-86
2023/07/07 09:33:01;;;;;;;10.80;3.67;;;;;;;;;;4979486;28;20039;-86
2023/07/07 09:35:31;;;;;;;8.10;3.92;;;;;;;;;;4978391;28;20031;-86
2023/07/07 09:38:27;;;;;;;10.13;3.72;;;;;;;;;;4984029;28;20037;-86
2023/07/07 09:41:12;;;;;;;7.22;3.92;;;;;;;;;;4979657;28;20026;-85
2023/07/07 09:43:48;;;;;;;6.10;3.95;;;;;;;;;;4973839;28;20056;-86
2023/07/07 09:46:21;;;;;;;5.65;3.95;;;;;;;;;;4981421;28;20089;-85
2023/07/07 09:49:26;;;;;;;5.20;3.95;;;;;;;;;;4977015;28;20489;-86
2023/07/07 09:52:25;;;;;;;6.30;3.72;;;;;;;;;;4966934;28;20034;-85
2023/07/07 09:54:52;;;;;;;8.68;4.03;;;;;;;;;;4985653;28;20033;-85
2023/07/07 09:57:25;;;;;;;6.35;4.30;;;;;;;;;;4989149;28;20026;-85
2023/07/07 09:59:55;;;;;;;5.97;4.03;;;;;;;;;;4977977;28;20034;-86
2023/07/07 10:02:23;;;;;;;6.63;4.25;;;;;;;;;;4992230;28;20031;-85
2023/07/07 10:04:54;;;;;;;7.40;4.25;;;;;;;;;;4987907;28;20030;-86
2023/07/07 10:07:20;;;;;;;6.53;3.83;;;;;;;;;;4984632;28;20045;-87
2023/07/07 10:09:46;;;;;;;7.63;4.57;;;;;;;;;;4995524;28;20030;-86
2023/07/07 10:12:14;;;;;;;6.78;4.00;;;;;;;;;;4987326;28;20077;-85
2023/07/07 10:14:42;;;;;;;8.25;4.53;;;;;;;;;;4988594;28;20030;-86
2023/07/07 10:17:38;;;;;;;8.25;3.70;;;;;;;;;;4984617;28;20038;-85
2023/07/07 10:20:05;;;;;;;7.57;4.45;;;;;;;;;;4978543;28;20029;-86
2023/07/07 10:22:30;;;;;;;6.25;4.63;;;;;;;;;;4981111;28;20038;-86
2023/07/07 10:24:56;;;;;;;7.80;4.60;;;;;;;;;;4985858;28;20022;-86
2023/07/07 10:27:23;;;;;;;6.63;4.35;;;;;;;;;;4980099;28;20512;-86
2023/07/07 10:29:49;;;;;;;6.47;4.30;;;;;;;;;;4980754;28;20026;-86
2023/07/07 10:32:21;;;;;;;8.57;4.78;;;;;;;;;;4978297;28;20026;-85
2023/07/07 10:34:51;;;;;;;9.43;4.30;;;;;;;;;;4977638;28;20516;-86
2023/07/07 10:37:19;;;;;;;6.85;4.60;;;;;;;;;;4977458;28;20050;-85
2023/07/07 10:39:50;;;;;;;7.47;4.70;;;;;;;;;;4984136;28;20026;-85
2023/07/07 10:42:15;;;;;;;7.68;5.60;;;;;;;;;;4993172;28;20027;-85
2023/07/07 10:44:48;;;;;;;7.32;4.82;;;;;;;;;;4970655;28;20058;-85
2023/07/07 10:47:18;;;;;;;9.07;5.65;;;;;;;;;;4984577;28;20081;-85
2023/07/07 10:49:44;;;;;;;8.93;5.88;;;;;;;;;;4966054;28;20023;-85
2023/07/07 10:52:39;;;;;;;9.38;6.22;;;;;;;;;;4972881;28;20125;-85
2023/07/07 10:55:27;;;;;;;10.18;6.07;;;;;;;;;;4983723;28;20014;-85
2023/07/07 10:58:02;;;;;;;9.60;6.07;;;;;;;;;;4972697;28;20025;-84
2023/07/07 11:01:03;;;;;;;10.23;6.30;;;;;;;;;;5003793;28;20027;-85
2023/07/07 11:03:40;;;;;;;10.45;7.25;;;;;;;;;;4971122;28;20035;-85
2023/07/07 11:06:34;;;;;;;9.57;6.15;;;;;;;;;;4978473;28;20027;-86
2023/07/07 11:09:37;;;;;;;10.85;6.82;;;;;;;;;;4976454;28;20034;-87
2023/07/07 11:12:29;;;;;;;10.38;6.70;;;;;;;;;;4972396;28;20033;-87
2023/07/07 11:15:05;;;;;;;;;;;;;;;;;;4962249;28;20047;-88
2023/07/07 11:18:19;;;;;;;8.73;6.18;;;;;;;;;;4995255;28;19921;-88
2023/07/07 11:21:19;;;;;;;9.23;5.68;;;;;;;;;;4957746;29;20039;-88
2023/07/07 11:24:08;;;;;;;11.32;6.90;;;;;;;;;;4970843;28;20023;-90
2023/07/07 11:26:57;;;;;;;9.65;5.82;;;;;;;;;;5002826;28;20022;-88
2023/07/07 11:29:51;;;;;;;7.30;5.55;;;;;;;;;;4987588;28;20073;-89
2023/07/07 11:32:20;;;;;;;9.05;6.45;;;;;;;;;;4984544;28;20158;-89
2023/07/07 11:35:04;;;;;;;14.15;6.97;;;;;;;;;;4976629;28;20053;-88
2023/07/07 11:37:51;;;;;;;16.15;7.80;;;;;;;;;;4973841;28;20035;-87
2023/07/07 11:40:22;;;;;;;9.93;6.70;;;;;;;;;;4988932;28;20082;-87
2023/07/07 11:43:11;;;;;;;12.55;6.15;;;;;;;;;;4974674;28;20058;-87
2023/07/07 11:46:02;;;;;;;9.07;6.22;;;;;;;;;;4992253;28;20010;-88
2023/07/07 11:48:42;;;;;;;10.68;6.38;;;;;;;;;;4984347;28;20043;-88
2023/07/07 11:51:26;;;;;;;14.32;5.80;;;;;;;;;;4978315;28;20047;-85
2023/07/07 11:54:21;;;;;;;;;;;;;;;;;;;;;
2023/07/07 11:57:19;;;;;;;11.40;6.65;;;;;;;;;;4953774;29;20375;-85
2023/07/07 12:00:03;;;;;;;9.35;6.03;;;;;;;;;;4977555;28;20018;-86
2023/07/07 12:02:50;;;;;;;9.05;5.80;;;;;;;;;;4977224;28;20120;-86
2023/07/07 12:05:27;;;;;;;8.13;5.70;;;;;;;;;;4989301;28;20125;-85
2023/07/07 12:07:58;;;;;;;7.60;5.63;;;;;;;;;;4987113;28;20018;-85
2023/07/07 12:10:40;;;;;;;9.55;5.97;;;;;;;;;;4977382;28;20018;-85
2023/07/07 12:13:11;;;;;;;9.68;6.15;;;;;;;;;;4975913;28;20035;-87
2023/07/07 12:15:43;;;;;;;10.98;5.35;;;;;;;;;;4960500;29;20023;-86
2023/07/07 12:18:34;;;;;;;9.63;5.65;;;;;;;;;;4994961;28;20031;-86
2023/07/07 12:21:17;;;;;;;8.48;5.38;;;;;;;;;;4979405;28;20023;-88
2023/07/07 12:23:57;;;;;;;13.98;5.35;;;;;;;;;;4995450;28;20045;-85
2023/07/07 12:26:27;;;;;;;7.60;5.03;;;;;;;;;;4998087;28;20026;-85
2023/07/07 12:28:59;;;;;;;7.75;5.45;;;;;;;;;;4994579;28;20034;-87
2023/07/07 12:31:27;;;;;;;9.25;5.75;;;;;;;;;;4977757;28;20031;-87
2023/07/07 12:33:52;;;;;;;11.38;5.80;;;;;;;;;;4975852;28;20117;-88
2023/07/07 12:36:20;;;;;;;11.73;5.70;;;;;;;;;;4974971;28;20069;-88
2023/07/07 12:38:51;;;;;;;8.75;5.40;;;;;;;;;;4980681;28;20042;-88
2023/07/07 12:41:24;;;;;;;7.65;5.25;;;;;;;;;;4978052;28;20652;-89
2023/07/07 12:44:02;;;;;;;11.95;5.70;;;;;;;;;;4979150;28;20030;-88
2023/07/07 12:46:35;;;;;;;8.32;5.05;;;;;;;;;;4980594;28;20212;-88
2023/07/07 12:49:23;;;;;;;10.18;5.85;;;;;;;;;;4983022;28;20047;-88
2023/07/07 12:51:58;;;;;;;9.88;6.10;;;;;;;;;;4978331;28;20030;-87
2023/07/07 12:54:36;;;;;;;9.23;5.95;;;;;;;;;;4998959;28;20031;-89
2023/07/07 12:57:13;;;;;;;9.68;5.93;;;;;;;;;;4989686;28;20068;-87
2023/07/07 12:59:40;;;;;;;8.27;5.90;;;;;;;;;;4995007;28;20030;-88
2023/07/07 13:02:25;;;;;;;8.65;5.63;;;;;;;;;;4995999;28;20026;-88
2023/07/07 13:04:57;;;;;;;9.38;5.43;;;;;;;;;;4975981;28;20102;-87
2023/07/07 13:07:34;;;;;;;11.68;5.57;;;;;;;;;;4995532;28;20022;-88
2023/07/07 13:10:04;;;;;;;8.10;5.00;;;;;;;;;;4977901;28;20027;-87
2023/07/07 13:12:42;;;;;;;8.38;5.05;;;;;;;;;;4986357;28;20038;-87
2023/07/07 13:15:17;;;;;;;11.63;5.50;;;;;;;;;;4985219;28;20096;-87
2023/07/07 13:17:42;;;;;;;8.10;5.53;;;;;;;;;;4968204;28;20029;-87
2023/07/07 13:20:15;;;;;;;10.95;5.45;;;;;;;;;;4965459;28;20106;-88
2023/07/07 13:22:59;;;;;;;9.32;5.22;;;;;;;;;;4977111;28;20074;-87
2023/07/07 13:25:33;;;;;;;7.63;5.00;;;;;;;;;;4982163;28;20022;-88
2023/07/07 13:27:59;;;;;;;13.43;6.03;;;;;;;;;;4980792;28;20041;-88
2023/07/07 13:30:42;;;;;;;8.38;4.88;;;;;;;;;;4981774;28;20035;-86
2023/07/07 13:33:16;;;;;;;8.70;5.53;;;;;;;;;;4980404;28;20085;-85
2023/07/07 13:35:45;;;;;;;9.02;5.50;;;;;;;;;;4980758;28;20050;-85
2023/07/07 13:38:17;;;;;;;7.93;4.88;;;;;;;;;;4977766;28;20035;-86
2023/07/07 13:40:52;;;;;;;9.40;5.20;;;;;;;;;;4963257;28;20024;-85
2023/07/07 13:43:42;;;;;;;9.68;5.07;;;;;;;;;;4977769;28;20023;-86
2023/07/07 13:46:17;;;;;;;10.27;5.20;;;;;;;;;;4977306;28;20485;-85
2023/07/07 13:48:50;;;;;;;8.15;5.22;;;;;;;;;;4982288;28;20675;-85
2023/07/07 13:51:36;;;;;;;7.72;5.10;;;;;;;;;;4982916;28;20114;-85
2023/07/07 13:54:07;;;;;;;8.55;5.35;;;;;;;;;;4983788;28;20476;-91
2023/07/07 13:56:48;;;;;;;7.97;5.15;;;;;;;;;;4991982;28;20035;-86
2023/07/07 13:59:31;;;;;;;9.95;5.75;;;;;;;;;;4979218;28;20027;-85
2023/07/07 14:02:01;;;;;;;9.82;5.50;;;;;;;;;;4980383;28;20501;-87
2023/07/07 14:04:31;;;;;;;9.52;5.07;;;;;;;;;;4988963;28;20015;-90
2023/07/07 14:06:57;;;;;;;8.80;5.03;;;;;;;;;;5000984;28;20034;-86
2023/07/07 14:09:59;;;;;;;9.90;5.20;;;;;;;;;;4996376;28;20497;-85
2023/07/07 14:12:30;;;;;;;8.32;5.25;;;;;;;;;;4975567;28;20030;-85
2023/07/07 14:15:08;;;;;;;;;;;;;;;;;;;;;
2023/07/07 14:17:38;;;;;;;8.38;5.40;;;;;;;;;;4925467;29;20090;-85
2023/07/07 14:20:26;;;;;;;9.40;5.15;;;;;;;;;;4974026;28;20037;-86
2023/07/07 14:22:53;;;;;;;9.27;4.90;;;;;;;;;;4977986;28;20041;-86
2023/07/07 14:25:21;;;;;;;9.65;5.53;;;;;;;;;;4976496;28;20079;-85
2023/07/07 14:27:47;;;;;;;7.88;4.90;;;;;;;;;;4977042;28;20053;-86
2023/07/07 14:30:22;;;;;;;8.90;5.63;;;;;;;;;;4973325;28;20389;-87
2023/07/07 14:32:52;;;;;;;7.70;5.18;;;;;;;;;;4969328;28;20026;-87
2023/07/07 14:35:24;;;;;;;9.52;5.25;;;;;;;;;;4982368;28;20018;-86
2023/07/07 14:37:54;;;;;;;9.13;5.10;;;;;;;;;;4975767;28;20023;-87
2023/07/07 14:40:32;;;;;;;8.85;5.07;;;;;;;;;;4972738;28;20019;-88
2023/07/07 14:43:03;;;;;;;8.73;5.32;;;;;;;;;;4972971;28;20027;-87
2023/07/07 14:45:34;;;;;;;8.80;5.28;;;;;;;;;;4973053;28;20045;-88
2023/07/07 14:48:00;;;;;;;11.20;5.43;;;;;;;;;;4973699;28;20277;-87
2023/07/07 14:50:30;;;;;;;11.02;5.13;;;;;;;;;;4972008;28;20062;-86
2023/07/07 14:52:57;;;;;;;8.55;4.70;;;;;;;;;;4971131;28;20050;-86
2023/07/07 14:55:28;;;;;;;7.72;4.95;;;;;;;;;;4971326;28;20031;-85
2023/07/07 14:57:58;;;;;;;7.88;5.20;;;;;;;;;;4972488;28;20106;-86
2023/07/07 15:00:28;;;;;;;9.17;5.13;;;;;;;;;;4972693;28;20026;-86
2023/07/07 15:02:57;;;;;;;7.47;4.95;;;;;;;;;;4970555;28;20295;-86
2023/07/07 15:05:30;;;;;;;7.72;5.03;;;;;;;;;;4973330;28;20126;-86
2023/07/07 15:08:09;;;;;;;10.40;4.90;;;;;;;;;;4973758;28;20451;-86
2023/07/07 15:10:38;;;;;;;11.05;4.97;;;;;;;;;;4973395;28;20035;-86